Scappoose, OR (97056)

16:48 PST le 20 février 2017 (GMT -0800)
4th & E.M. Watts | | Change Station

Alt. 62 ft 45.75 °N, 122.88 °W | Updated 37 seconds ago

Light Rain
Pluie fine
47.5 ° F
Paraît 47 ° F
N
3.2
Vent Variable Vent de NNO

Aujourd'hui
Haut(e) -- | Bas -- ° F
--% Risque de précip.
Hier
Haut(e) -- | Bas -- ° F
Precip. -- pouce
Pression 29.71 pouce
Visibilité 10.0 Miles terrestres
Nuages Peu 2000 ft
Nuages épars 3000 ft
Couvert 3700 ft
Refroidissement éolien 47 ° F
Point de rosée 47 ° F
Humidité 99%
Précipitations 0.72 pouce
Profondeur de la couche neigeuse Non disponible.
7:05 AM 5:46 PM
Lune descendante, 30% visible
METAR KSPB 202353Z AUTO 32004KT 10SM -RA FEW020 SCT030 OVC037 08/07 A2971 RMK AO2 SLP060 P0004 60013 T00830072 10094 20067 53013
Pression 29.71 pouce
Visibilité 10.0 Miles terrestres
Nuages Peu 2000 ft
Nuages épars 3000 ft
Couvert 3700 ft
Refroidissement éolien 47 ° F
Point de rosée 47 ° F
Humidité 99%
Précipitations 0.72 pouce
Profondeur de la couche neigeuse Non disponible.
7:05 AM 5:46 PM
Lune descendante, 30% visible
METAR KSPB 202353Z AUTO 32004KT 10SM -RA FEW020 SCT030 OVC037 08/07 A2971 RMK AO2 SLP060 P0004 60013 T00830072 10094 20067 53013

Get Your Daily Forecast Email!

Thanks for signing up!

Be on the lookout for a verification email in your inbox.

You'll start receiving the daily forecast at 8 AM.

×

10-Day Weather Forecast

Almanac

Astronomie

Feb. 20, 2017 Lever Coucher
Temps réel
Crépuscule civil
Crépuscule nautique
Crépuscule astronomique
Lune
Durée de lumière visible
Longueur du jour
Tomorrow will be .
, % of the Moon is Illuminated

Extrêmes aujourd'hui

State Highs State Lows

Community

WunderPhotos

Upload Photos

1,962,540 Photos téléchargées !

WunderBlog® & News

Nearby

Qualité de l'air

  Qualité de l'air Indice de la qualité de l'air Polluant
Not available.

Épaisseur de neige

Station Depth Altitude

Activité sismique

Ville Distance Mag. Time & Date
Minimum magnitude displayed is 2.5.

Températures des eaux côtières

Lieu Température

Stations

Stations météo à proximité

Emplacement de la station Température Refroidissement éolien Point de rosée Humidité Vent Precip. Alt. Mise à jour Type
                   

Watches & Warnings

There are currently no watches in effect.